Time;durP1;ratioP1;P1;durP2;ratioP2;P2;SDS_P1;SDS_P2;PMS_P1;PMS_P2;Temp;Humidity;BMP_temperature;BMP_pressure;BME280_temperature;BME280_humidity;BME280_pressure;Samples;Min_cycle;Max_cycle;Signal;HPM_P1;HPM_P2
2022/11/26 00:00:38;;;;;;;27.38;16.65;;;;;;;5.91;95.66;99605.13;5025146;28;20121;-81
2022/11/26 00:03:04;;;;;;;25.98;16.08;;;;;;;5.85;95.18;99597.16;5022891;28;20041;-81
2022/11/26 00:05:30;;;;;;;28.88;15.27;;;;;;;5.75;95.67;99605.44;5012479;28;20490;-81
2022/11/26 00:07:57;;;;;;;31.20;17.42;;;;;;;5.78;95.23;99613.00;5024702;28;20496;-81
2022/11/26 00:10:26;;;;;;;30.55;16.27;;;;;;;5.74;95.16;99614.44;5030012;28;20036;-81
2022/11/26 00:12:51;;;;;;;25.52;16.55;;;;;;;5.74;95.32;99619.72;5025057;28;20029;-81
2022/11/26 00:15:21;;;;;;;30.83;16.45;;;;;;;5.80;95.32;99616.28;5020910;28;20103;-81
2022/11/26 00:17:48;;;;;;;34.38;16.83;;;;;;;5.88;94.21;99625.88;5018149;28;20040;-81
2022/11/26 00:20:14;;;;;;;30.50;16.83;;;;;;;5.82;95.06;99621.34;5017968;28;20078;-81
2022/11/26 00:22:44;;;;;;;26.30;16.13;;;;;;;5.81;94.71;99627.69;5016412;28;20040;-81
2022/11/26 00:25:23;;;;;;;31.70;17.05;;;;;;;5.80;95.18;99636.63;5017970;28;20041;-82
2022/11/26 00:27:49;;;;;;;39.22;20.77;;;;;;;5.58;96.25;99638.59;5024795;28;20053;-81
2022/11/26 00:30:26;;;;;;;27.75;17.38;;;;;;;5.68;94.92;99633.72;5027706;28;20025;-81
2022/11/26 00:32:52;;;;;;;28.98;16.60;;;;;;;5.59;96.07;99637.56;5026441;28;20025;-81
2022/11/26 00:35:19;;;;;;;28.85;18.30;;;;;;;5.60;95.13;99628.63;5024137;28;20536;-81
2022/11/26 00:37:52;;;;;;;26.50;15.50;;;;;;;5.70;95.43;99637.00;5027899;28;20051;-81
2022/11/26 00:40:32;;;;;;;25.23;16.38;;;;;;;5.77;94.70;99639.66;5025497;28;20077;-81
2022/11/26 00:42:58;;;;;;;32.80;17.02;;;;;;;5.78;94.94;99647.44;5021228;28;20041;-82
2022/11/26 00:45:26;;;;;;;36.65;20.25;;;;;;;5.61;95.29;99634.72;5010657;28;20065;-81
2022/11/26 00:47:52;;;;;;;42.90;19.77;;;;;;;5.50;95.50;99633.47;5026839;28;20048;-81
2022/11/26 00:50:25;;;;;;;37.72;21.17;;;;;;;5.54;96.59;99661.19;5016386;28;20440;-81
2022/11/26 00:52:53;;;;;;;34.88;20.50;;;;;;;5.58;97.08;99662.41;5019474;28;20037;-81
2022/11/26 00:55:30;;;;;;;48.00;22.75;;;;;;;5.43;98.32;99661.72;5027292;28;20045;-81
2022/11/26 00:57:56;;;;;;;33.22;18.60;;;;;;;5.39;98.24;99652.56;5026324;28;20718;-81
2022/11/26 01:00:28;;;;;;;34.05;20.17;;;;;;;5.58;96.86;99646.53;5021802;28;20108;-81
2022/11/26 01:02:54;;;;;;;33.67;17.75;;;;;;;5.82;94.79;99671.69;5021554;28;20101;-81
2022/11/26 01:05:21;;;;;;;29.50;16.98;;;;;;;5.87;94.93;99691.31;5023004;28;20075;-82
2022/11/26 01:07:47;;;;;;;34.38;17.63;;;;;;;5.64;94.64;99661.63;5023196;28;20188;-81
2022/11/26 01:10:16;;;;;;;45.90;22.00;;;;;;;5.62;95.90;99692.78;5018424;28;20024;-81
2022/11/26 01:12:42;;;;;;;39.97;18.67;;;;;;;5.47;97.18;99683.31;5020379;28;20239;-81
2022/11/26 01:15:08;;;;;;;35.67;16.95;;;;;;;5.70;95.82;99686.53;5001011;28;20037;-81
2022/11/26 01:17:33;;;;;;;49.28;21.10;;;;;;;5.52;96.69;99683.56;5020663;28;20028;-81
2022/11/26 01:19:58;;;;;;;33.42;16.98;;;;;;;5.63;95.56;99697.09;5023622;28;20033;-81
2022/11/26 01:22:24;;;;;;;28.80;17.08;;;;;;;5.70;95.48;99694.47;5023270;28;20492;-81
2022/11/26 01:24:49;;;;;;;30.77;16.40;;;;;;;5.60;95.95;99691.34;5021107;28;20041;-81
2022/11/26 01:27:18;;;;;;;27.10;15.73;;;;;;;5.58;95.40;99698.66;5023341;28;20523;-81
2022/11/26 01:29:43;;;;;;;27.88;16.45;;;;;;;5.61;95.04;99693.00;5019492;28;20071;-81
2022/11/26 01:32:10;;;;;;;28.00;14.48;;;;;;;5.54;95.42;99714.13;4987197;28;20021;-81
2022/11/26 01:34:35;;;;;;;28.48;16.25;;;;;;;5.51;94.64;99711.03;5016789;28;20136;-81
2022/11/26 01:37:00;;;;;;;24.88;15.07;;;;;;;5.47;95.08;99707.16;5022638;28;20443;-81
2022/11/26 01:39:26;;;;;;;29.52;15.88;;;;;;;5.50;93.92;99718.19;5005396;28;20049;-81
2022/11/26 01:41:57;;;;;;;28.38;14.95;;;;;;;5.41;94.25;99711.41;4999719;28;20045;-81
2022/11/26 01:44:26;;;;;;;33.08;15.93;;;;;;;5.38;94.55;99717.06;5017620;28;20060;-81
2022/11/26 01:46:52;;;;;;;26.05;14.73;;;;;;;5.52;93.98;99715.34;5023714;28;20071;-81
2022/11/26 01:49:23;;;;;;;28.63;16.30;;;;;;;5.51;93.73;99722.44;4999968;28;20025;-82
2022/11/26 01:52:18;;;;;;;22.83;14.93;;;;;;;5.46;93.85;99724.06;5021704;28;20473;-82
2022/11/26 01:54:44;;;;;;;32.42;15.02;;;;;;;5.36;94.06;99719.09;5014946;28;20025;-81
2022/11/26 01:57:24;;;;;;;31.42;16.60;;;;;;;5.34;93.99;99734.34;5014095;28;20174;-81
2022/11/26 01:59:52;;;;;;;33.50;16.30;;;;;;;5.38;93.76;99740.91;5021061;28;20428;-81
2022/11/26 02:02:20;;;;;;;27.15;15.63;;;;;;;5.39;94.14;99737.25;5013249;28;20041;-81
2022/11/26 02:04:50;;;;;;;34.28;17.90;;;;;;;5.03;93.49;99702.16;5023852;28;20297;-81
2022/11/26 02:07:15;;;;;;;24.58;14.32;;;;;;;5.31;93.85;99745.31;5015513;28;20039;-81
2022/11/26 02:09:41;;;;;;;30.60;15.85;;;;;;;5.39;94.15;99736.44;5020088;28;20046;-81
2022/11/26 02:12:07;;;;;;;25.73;14.38;;;;;;;5.25;93.71;99724.94;5018986;28;20033;-81
2022/11/26 02:14:39;;;;;;;41.22;19.35;;;;;;;5.16;92.86;99741.94;5000305;28;20052;-81
2022/11/26 02:17:40;;;;;;;29.65;15.77;;;;;;;5.34;93.46;99744.94;5018912;28;20101;-81
2022/11/26 02:20:20;;;;;;;29.50;15.93;;;;;;;5.21;94.03;99744.84;5015704;28;20136;-81
2022/11/26 02:22:48;;;;;;;25.90;14.73;;;;;;;5.31;93.93;99755.91;5015597;28;20037;-81
2022/11/26 02:25:35;;;;;;;29.30;16.42;;;;;;;5.36;93.51;99758.81;5018675;28;20171;-81
2022/11/26 02:28:06;;;;;;;26.88;16.60;;;;;;;5.33;92.80;99769.75;5016367;28;20196;-81
2022/11/26 02:30:36;;;;;;;29.98;17.08;;;;;;;5.26;92.39;99767.06;5019861;28;20035;-81
2022/11/26 02:33:10;;;;;;;30.48;16.33;;;;;;;5.25;93.46;99765.44;5021202;28;20413;-81
2022/11/26 02:35:48;;;;;;;29.05;15.25;;;;;;;5.19;92.72;99768.03;5015032;28;20025;-81
2022/11/26 02:38:31;;;;;;;25.60;15.65;;;;;;;5.14;93.96;99771.25;5019392;28;20038;-81
2022/11/26 02:40:57;;;;;;;35.70;17.85;;;;;;;4.96;92.87;99785.94;5017851;28;20033;-81
2022/11/26 02:43:24;;;;;;;29.05;15.95;;;;;;;4.93;94.55;99768.63;5017868;28;20095;-81
2022/11/26 02:45:54;;;;;;;39.70;19.30;;;;;;;5.09;93.90;99778.13;5017594;28;20029;-81
2022/11/26 02:48:27;;;;;;;31.27;16.05;;;;;;;5.16;93.80;99790.41;5017770;28;20041;-81
2022/11/26 02:50:58;;;;;;;28.63;17.55;;;;;;;4.97;92.99;99761.97;5016149;28;20120;-81
2022/11/26 02:53:27;;;;;;;33.85;16.67;;;;;;;5.14;93.68;99797.72;5016898;28;20037;-81
2022/11/26 02:56:01;;;;;;;28.55;16.40;;;;;;;4.99;93.84;99782.91;4995502;28;20764;-81
2022/11/26 02:58:28;;;;;;;33.65;17.95;;;;;;;4.95;94.87;99793.06;5015411;28;20060;-80
2022/11/26 03:00:57;;;;;;;44.95;19.38;;;;;;;5.11;94.65;99815.81;5020856;28;20037;-81
2022/11/26 03:03:32;;;;;;;39.72;20.40;;;;;;;5.04;94.86;99818.41;5024592;28;20048;-81
2022/11/26 03:06:03;;;;;;;43.67;19.50;;;;;;;5.15;94.09;99809.97;5019371;28;20395;-81
2022/11/26 03:08:30;;;;;;;27.92;17.55;;;;;;;5.07;93.80;99786.25;5015343;28;20022;-81
2022/11/26 03:10:56;;;;;;;37.08;18.42;;;;;;;5.24;93.56;99813.28;5014021;28;20036;-81
2022/11/26 03:13:21;;;;;;;51.45;24.08;;;;;;;4.74;94.41;99794.91;5017090;28;20054;-81
2022/11/26 03:15:47;;;;;;;38.28;19.05;;;;;;;4.87;96.35;99824.13;5016972;28;20026;-81
2022/11/26 03:18:13;;;;;;;36.95;18.55;;;;;;;5.18;95.20;99825.44;5001282;28;20364;-81
2022/11/26 03:20:38;;;;;;;35.08;16.92;;;;;;;5.06;93.70;99804.97;5017816;28;20298;-81
2022/11/26 03:23:04;;;;;;;39.33;19.30;;;;;;;5.22;93.33;99831.19;5014648;28;20164;-81
2022/11/26 03:25:29;;;;;;;34.50;17.88;;;;;;;5.07;93.03;99815.34;5014053;28;20385;-81
2022/11/26 03:27:55;;;;;;;42.30;19.10;;;;;;;5.21;93.36;99826.88;4985302;28;20120;-81
2022/11/26 03:30:20;;;;;;;35.22;19.40;;;;;;;5.16;93.09;99824.81;5017471;28;20051;-81
2022/11/26 03:32:46;;;;;;;43.60;21.00;;;;;;;5.00;94.52;99829.53;5017591;28;20598;-81
2022/11/26 03:35:11;;;;;;;34.40;18.23;;;;;;;5.07;93.28;99825.94;4999615;28;20098;-81
2022/11/26 03:37:37;;;;;;;39.83;18.63;;;;;;;5.18;92.80;99843.13;5019583;28;20095;-81
2022/11/26 03:40:03;;;;;;;32.25;20.10;;;;;;;5.24;93.19;99839.75;5025714;28;20033;-81
2022/11/26 03:42:28;;;;;;;35.25;20.08;;;;;;;5.11;92.56;99823.75;5018335;28;20128;-81
2022/11/26 03:44:54;;;;;;;28.88;18.38;;;;;;;4.93;93.36;99823.34;5016673;28;20034;-81
2022/11/26 03:47:19;;;;;;;31.27;18.15;;;;;;;5.06;93.14;99821.66;5017513;28;20025;-82
2022/11/26 03:49:45;;;;;;;37.17;19.88;;;;;;;5.13;92.82;99827.81;5034489;28;20032;-81
2022/11/26 03:52:10;;;;;;;31.60;18.05;;;;;;;5.19;92.82;99847.44;5020216;28;20033;-82
2022/11/26 03:54:36;;;;;;;35.42;18.75;;;;;;;5.15;92.50;99844.34;4998205;28;20041;-82
2022/11/26 03:57:01;;;;;;;36.38;17.38;;;;;;;5.07;92.23;99833.88;5019883;28;20065;-81
2022/11/26 03:59:26;;;;;;;42.67;18.52;;;;;;;5.23;92.20;99852.16;5020129;28;20034;-81
2022/11/26 04:01:52;;;;;;;32.50;19.50;;;;;;;5.19;91.08;99842.97;5002834;28;20489;-81
2022/11/26 04:04:17;;;;;;;32.35;18.42;;;;;;;5.17;91.43;99836.22;5026078;28;20128;-81
2022/11/26 04:06:42;;;;;;;35.85;18.65;;;;;;;5.13;91.40;99848.19;5022726;28;20038;-81
2022/11/26 04:09:08;;;;;;;39.83;19.05;;;;;;;5.12;91.46;99850.00;5003088;28;20030;-81
2022/11/26 04:11:33;;;;;;;45.72;19.60;;;;;;;5.15;91.38;99852.28;5025582;28;20040;-81
2022/11/26 04:13:59;;;;;;;32.78;18.52;;;;;;;5.07;90.93;99852.41;5020521;28;20041;-81
2022/11/26 04:16:24;;;;;;;35.10;20.35;;;;;;;5.00;91.52;99848.06;5020789;28;20053;-82
2022/11/26 04:18:50;;;;;;;38.85;19.70;;;;;;;4.99;91.54;99846.41;5023336;28;20038;-81
2022/11/26 04:21:15;;;;;;;40.25;19.42;;;;;;;5.02;91.35;99859.28;5021653;28;20037;-81
2022/11/26 04:23:40;;;;;;;37.88;19.33;;;;;;;4.90;91.04;99863.41;5027633;28;20032;-81
2022/11/26 04:26:06;;;;;;;33.95;19.05;;;;;;;4.87;91.36;99864.59;5027820;28;20087;-81
2022/11/26 04:28:31;;;;;;;36.15;18.33;;;;;;;4.85;90.94;99863.97;5026125;28;20057;-81
2022/11/26 04:30:57;;;;;;;32.03;18.40;;;;;;;4.85;91.39;99855.22;4991131;28;20071;-81
2022/11/26 04:33:22;;;;;;;32.70;17.55;;;;;;;4.99;91.05;99873.69;5026393;28;20496;-81
2022/11/26 04:35:49;;;;;;;36.10;19.23;;;;;;;4.92;90.46;99856.09;5020807;28;20061;-81
2022/11/26 04:38:14;;;;;;;28.33;17.88;;;;;;;4.92;90.54;99866.69;5018350;28;20136;-81
2022/11/26 04:40:39;;;;;;;34.95;18.40;;;;;;;4.86;90.87;99854.22;5025733;28;20471;-81
2022/11/26 04:43:05;;;;;;;31.88;17.58;;;;;;;4.82;90.80;99863.53;5006672;28;20041;-81
2022/11/26 04:45:31;;;;;;;33.58;18.38;;;;;;;4.90;90.08;99871.34;5003057;28;20116;-81
2022/11/26 04:47:56;;;;;;;32.40;19.38;;;;;;;4.86;90.60;99878.00;5007914;28;20036;-81
2022/11/26 04:50:22;;;;;;;34.97;18.90;;;;;;;4.67;90.48;99858.28;5025682;28;20481;-82
2022/11/26 04:52:49;;;;;;;33.25;18.38;;;;;;;4.82;90.41;99892.63;5023761;28;20042;-81
2022/11/26 04:55:16;;;;;;;40.33;19.65;;;;;;;4.87;89.77;99887.59;5021993;28;20022;-81
2022/11/26 04:57:42;;;;;;;32.95;18.00;;;;;;;4.42;90.11;99839.25;5021421;28;20041;-81
2022/11/26 05:00:08;;;;;;;33.92;17.60;;;;;;;4.83;90.29;99896.88;5018419;28;20034;-81
2022/11/26 05:02:33;;;;;;;29.45;17.88;;;;;;;4.76;90.23;99898.66;5019147;28;20037;-81
2022/11/26 05:04:59;;;;;;;30.77;18.70;;;;;;;4.72;89.77;99877.03;5019621;28;20030;-81
2022/11/26 05:07:24;;;;;;;40.42;19.23;;;;;;;4.73;89.63;99876.03;4989060;28;20029;-81
2022/11/26 05:09:49;;;;;;;32.40;19.55;;;;;;;4.72;89.48;99897.38;5006665;28;20088;-81
2022/11/26 05:12:15;;;;;;;39.10;19.67;;;;;;;4.62;89.29;99876.50;5023916;28;20504;-81
2022/11/26 05:14:40;;;;;;;38.20;19.40;;;;;;;4.71;89.59;99895.72;5021618;28;20029;-81
2022/11/26 05:17:06;;;;;;;41.05;20.45;;;;;;;4.45;89.47;99891.78;5007236;28;20037;-81
2022/11/26 05:19:31;;;;;;;33.25;17.80;;;;;;;4.46;90.09;99869.59;5002533;28;20037;-81
2022/11/26 05:21:56;;;;;;;34.78;18.67;;;;;;;4.69;89.53;99890.66;5007745;28;20034;-81
2022/11/26 05:24:22;;;;;;;31.63;19.38;;;;;;;4.53;89.57;99880.25;5020261;28;20332;-81
2022/11/26 05:26:47;;;;;;;33.25;19.65;;;;;;;4.66;90.02;99903.41;5013860;28;20033;-81
2022/11/26 05:29:13;;;;;;;36.28;19.33;;;;;;;4.68;89.42;99910.13;5018764;28;20525;-81
2022/11/26 05:31:38;;;;;;;29.20;18.42;;;;;;;4.59;89.49;99897.22;5005148;28;20539;-81
2022/11/26 05:34:04;;;;;;;31.92;19.85;;;;;;;4.49;89.34;99884.28;4985725;28;20044;-81
2022/11/26 05:36:29;;;;;;;32.88;18.48;;;;;;;4.57;89.11;99884.16;5018634;28;20429;-81
2022/11/26 05:38:55;;;;;;;36.13;18.73;;;;;;;4.60;89.34;99910.25;5018573;28;20033;-81
2022/11/26 05:41:20;;;;;;;34.17;19.27;;;;;;;4.53;89.63;99911.97;4997978;28;20133;-81
2022/11/26 05:43:45;;;;;;;32.58;18.58;;;;;;;4.54;90.14;99909.16;5000248;28;20040;-81
2022/11/26 05:46:13;;;;;;;30.13;19.90;;;;;;;4.61;90.50;99924.31;5000786;28;20096;-80
2022/11/26 05:48:39;;;;;;;36.45;19.58;;;;;;;4.81;89.11;99928.00;5021377;28;20051;-81
2022/11/26 05:51:04;;;;;;;32.35;18.48;;;;;;;4.64;89.90;99902.75;5019096;28;20051;-81
2022/11/26 05:53:30;;;;;;;39.10;20.52;;;;;;;4.72;89.52;99932.56;5004170;28;20075;-81
2022/11/26 05:55:55;;;;;;;34.00;22.02;;;;;;;4.41;91.74;99931.97;5025516;28;20051;-81
2022/11/26 05:58:20;;;;;;;34.75;20.13;;;;;;;4.47;91.71;99926.75;5021771;28;20041;-81
2022/11/26 06:00:46;;;;;;;34.22;20.73;;;;;;;4.52;91.99;99919.09;5005332;28;20047;-81
2022/11/26 06:03:11;;;;;;;45.47;21.67;;;;;;;4.60;91.02;99925.28;5019738;28;20499;-81
2022/11/26 06:05:37;;;;;;;34.08;19.23;;;;;;;4.75;91.53;99947.25;5017808;28;20432;-81
2022/11/26 06:08:02;;;;;;;42.75;21.42;;;;;;;4.80;91.01;99952.81;5020971;28;20028;-81
2022/11/26 06:10:27;;;;;;;33.13;19.88;;;;;;;4.73;90.80;99936.03;5022329;28;20082;-81
2022/11/26 06:12:53;;;;;;;32.85;18.88;;;;;;;4.88;91.42;99942.13;5004116;28;20079;-81
2022/11/26 06:15:18;;;;;;;32.17;19.73;;;;;;;4.72;92.25;99945.00;5024052;28;20033;-81
2022/11/26 06:17:44;;;;;;;28.92;18.83;;;;;;;4.83;91.34;99947.13;5021329;28;20041;-81
2022/11/26 06:20:10;;;;;;;34.03;19.30;;;;;;;4.86;91.51;99952.06;5003600;28;20571;-81
2022/11/26 06:22:40;;;;;;;30.52;18.38;;;;;;;4.98;91.10;99953.25;5001305;28;20029;-81
2022/11/26 06:25:08;;;;;;;33.17;17.45;;;;;;;4.95;90.85;99953.59;5024983;28;20037;-81
2022/11/26 06:27:34;;;;;;;34.42;19.13;;;;;;;4.66;91.78;99933.31;5023365;28;20033;-81
2022/11/26 06:30:00;;;;;;;34.60;18.60;;;;;;;4.84;91.71;99951.44;5026816;28;20021;-81
2022/11/26 06:32:28;;;;;;;28.52;18.52;;;;;;;4.88;91.86;99963.28;5018543;28;20540;-81
2022/11/26 06:34:53;;;;;;;25.65;16.30;;;;;;;4.88;91.64;99961.47;5003521;28;20540;-81
2022/11/26 06:37:18;;;;;;;33.00;18.80;;;;;;;4.87;92.29;99959.00;5003388;28;20128;-81
2022/11/26 06:39:44;;;;;;;30.55;16.55;;;;;;;4.90;92.67;99971.84;5024388;28;20497;-81
2022/11/26 06:42:09;;;;;;;36.40;18.70;;;;;;;4.97;92.47;99986.81;5020915;28;20064;-81
2022/11/26 06:44:35;;;;;;;31.27;16.65;;;;;;;4.95;92.81;99982.72;5023651;28;20110;-81
2022/11/26 06:47:00;;;;;;;28.98;17.45;;;;;;;5.08;92.03;100001.38;5020175;28;20374;-81
2022/11/26 06:49:26;;;;;;;34.78;17.02;;;;;;;5.05;91.95;99993.81;5019468;28;20048;-81
2022/11/26 06:51:52;;;;;;;30.45;15.48;;;;;;;5.09;92.31;99995.91;5022429;28;20468;-81
2022/11/26 06:54:18;;;;;;;25.20;16.17;;;;;;;5.07;92.42;100005.03;5019083;28;20032;-81
2022/11/26 06:56:43;;;;;;;28.15;15.20;;;;;;;5.11;91.89;100001.03;5017519;28;20128;-81
2022/11/26 06:59:09;;;;;;;28.52;15.52;;;;;;;5.12;91.02;100002.66;5026035;28;20108;-81
2022/11/26 07:01:34;;;;;;;28.48;15.63;;;;;;;5.18;91.80;100004.56;5002450;28;20128;-81
2022/11/26 07:04:00;;;;;;;27.05;15.00;;;;;;;5.17;90.47;100009.06;5003133;28;20092;-82
2022/11/26 07:06:28;;;;;;;26.50;14.85;;;;;;;5.09;90.93;100001.19;5019669;28;20049;-81
2022/11/26 07:08:56;;;;;;;27.77;15.52;;;;;;;5.13;91.59;100014.91;5017756;28;20036;-81
2022/11/26 07:11:23;;;;;;;26.25;14.80;;;;;;;5.11;91.75;100008.97;5023289;28;20044;-81
2022/11/26 07:13:49;;;;;;;25.02;15.40;;;;;;;4.88;91.77;99989.72;5025599;28;20112;-81
2022/11/26 07:16:15;;;;;;;27.27;16.40;;;;;;;5.09;92.02;100022.38;4999006;28;20033;-81
2022/11/26 07:18:41;;;;;;;28.70;16.77;;;;;;;5.13;91.81;100034.22;5020287;28;20048;-81
2022/11/26 07:21:10;;;;;;;25.35;15.43;;;;;;;5.06;92.84;100032.50;5021418;28;20374;-81
2022/11/26 07:23:36;;;;;;;31.33;14.10;;;;;;;4.89;92.73;100009.91;5026181;28;20048;-81
2022/11/26 07:26:02;;;;;;;25.27;15.07;;;;;;;5.13;92.17;100044.81;5011100;28;20026;-81
2022/11/26 07:28:28;;;;;;;30.85;17.60;;;;;;;5.21;92.57;100043.91;5027810;28;20026;-82
2022/11/26 07:30:58;;;;;;;24.60;13.88;;;;;;;5.09;92.59;100025.00;5026871;28;20397;-81
2022/11/26 07:33:23;;;;;;;28.80;15.38;;;;;;;5.18;92.12;100038.97;5023943;28;20040;-82
2022/11/26 07:35:48;;;;;;;25.63;13.63;;;;;;;4.97;93.55;100033.59;5022097;28;20052;-81
2022/11/26 07:38:14;;;;;;;30.48;15.70;;;;;;;5.08;93.74;100054.31;5005913;28;20068;-81
2022/11/26 07:40:39;;;;;;;23.25;14.00;;;;;;;5.00;93.47;100043.84;5026342;28;20774;-81
2022/11/26 07:43:04;;;;;;;25.63;13.48;;;;;;;5.01;94.20;100045.47;5026581;28;20112;-81
2022/11/26 07:45:30;;;;;;;21.95;14.63;;;;;;;5.18;93.48;100057.47;5028218;28;20715;-82
2022/11/26 07:47:55;;;;;;;22.48;13.10;;;;;;;5.08;93.20;100041.09;5025131;28;20187;-81
2022/11/26 07:50:20;;;;;;;26.00;13.55;;;;;;;5.21;93.29;100028.00;5023426;28;20044;-81
2022/11/26 07:52:46;;;;;;;25.75;13.77;;;;;;;5.29;93.41;100057.03;5020935;28;20568;-81
2022/11/26 07:55:11;;;;;;;23.92;12.85;;;;;;;5.14;93.62;100046.47;5005690;28;20669;-81
2022/11/26 07:57:37;;;;;;;23.98;13.70;;;;;;;5.30;93.29;100064.78;5021078;28;20025;-81
2022/11/26 08:00:06;;;;;;;26.23;13.95;;;;;;;5.19;93.34;100048.56;5027542;28;20040;-81
2022/11/26 08:02:31;;;;;;;24.10;14.40;;;;;;;5.30;93.49;100067.44;5024114;28;20204;-81
2022/11/26 08:04:56;;;;;;;22.65;14.50;;;;;;;5.19;93.46;100056.50;5003738;28;20148;-81
2022/11/26 08:07:22;;;;;;;23.52;16.20;;;;;;;5.13;93.58;100050.09;5020680;28;20112;-81
2022/11/26 08:09:47;;;;;;;25.98;15.05;;;;;;;5.31;93.58;100081.47;5026187;28;20040;-81
2022/11/26 08:12:13;;;;;;;29.45;14.25;;;;;;;5.16;94.08;100080.66;5018719;28;20041;-81
2022/11/26 08:14:38;;;;;;;19.15;13.07;;;;;;;5.25;94.14;100085.69;5005872;28;20041;-81
2022/11/26 08:17:03;;;;;;;26.17;14.05;;;;;;;5.31;94.23;100081.47;5023278;28;20038;-81
2022/11/26 08:19:29;;;;;;;26.92;14.43;;;;;;;5.28;94.57;100085.34;5023946;28;20072;-81
2022/11/26 08:21:54;;;;;;;24.77;12.95;;;;;;;5.31;94.30;100092.88;5025961;28;20489;-81
2022/11/26 08:24:19;;;;;;;22.95;14.65;;;;;;;5.24;94.44;100072.66;5012769;28;20037;-81
2022/11/26 08:26:45;;;;;;;29.15;13.55;;;;;;;5.27;94.23;100069.63;5023067;28;20029;-81
2022/11/26 08:29:12;;;;;;;27.77;13.90;;;;;;;5.45;93.70;100090.41;5024651;28;20032;-81
2022/11/26 08:31:39;;;;;;;21.60;12.45;;;;;;;5.35;93.48;100081.94;5026138;28;20091;-81
2022/11/26 08:34:05;;;;;;;25.35;12.98;;;;;;;5.49;93.23;100089.84;5025504;28;20570;-81
2022/11/26 08:36:31;;;;;;;24.40;13.55;;;;;;;5.54;93.70;100084.00;5021461;28;20033;-82
2022/11/26 08:38:58;;;;;;;31.08;14.75;;;;;;;5.58;92.99;100099.34;5011012;28;20041;-81
2022/11/26 08:41:23;;;;;;;25.05;13.07;;;;;;;5.42;93.95;100096.88;5023924;28;20030;-81
2022/11/26 08:43:48;;;;;;;26.00;14.35;;;;;;;5.43;94.01;100081.84;4990917;28;20108;-81
2022/11/26 08:46:14;;;;;;;20.02;11.88;;;;;;;5.53;94.08;100096.41;4990292;28;20044;-82
2022/11/26 08:48:40;;;;;;;20.38;11.35;;;;;;;5.46;94.11;100100.00;5004169;28;20044;-81
2022/11/26 08:51:09;;;;;;;26.20;13.13;;;;;;;5.56;94.47;100106.66;5017170;28;20037;-81
2022/11/26 08:53:35;;;;;;;23.60;13.02;;;;;;;5.41;94.47;100095.25;5026151;28;20029;-81
2022/11/26 08:56:05;;;;;;;19.70;10.82;;;;;;;5.50;94.65;100101.28;5021557;28;20044;-81
2022/11/26 08:58:36;;;;;;;23.27;12.38;;;;;;;5.56;93.52;100109.31;5021978;28;20044;-81
2022/11/26 09:01:09;;;;;;;36.30;11.95;;;;;;;5.58;94.01;100107.28;5020494;28;20083;-82
2022/11/26 09:03:34;;;;;;;26.77;12.00;;;;;;;5.56;93.96;100090.75;5001190;28;20030;-82
2022/11/26 09:06:01;;;;;;;18.92;10.40;;;;;;;5.59;93.73;100108.13;5018972;28;20666;-82
2022/11/26 09:08:27;;;;;;;34.72;11.85;;;;;;;5.60;93.91;100107.91;5022243;28;20025;-82
2022/11/26 09:10:54;;;;;;;23.52;10.38;;;;;;;5.61;93.92;100112.22;5018608;28;20080;-82
2022/11/26 09:13:20;;;;;;;29.05;11.40;;;;;;;5.59;93.63;100108.91;5023252;28;20543;-81
2022/11/26 09:15:47;;;;;;;29.52;11.23;;;;;;;5.59;93.89;100098.31;5006538;28;20030;-82
2022/11/26 09:18:12;;;;;;;26.67;10.48;;;;;;;5.54;93.31;100095.44;5003378;28;20041;-82
2022/11/26 09:20:38;;;;;;;25.98;11.05;;;;;;;5.76;93.43;100118.31;5017898;28;20052;-81
2022/11/26 09:23:03;;;;;;;34.80;19.05;;;;;;;5.71;94.02;100123.34;5019845;28;20039;-82
2022/11/26 09:25:28;;;;;;;30.13;14.00;;;;;;;5.57;93.62;100094.25;5017943;28;20033;-81
2022/11/26 09:27:54;;;;;;;22.80;13.15;;;;;;;5.69;93.44;100108.63;5004529;28;20037;-82
2022/11/26 09:30:19;;;;;;;22.02;12.63;;;;;;;5.70;93.18;100118.22;5016348;28;20433;-81
2022/11/26 09:32:44;;;;;;;19.67;11.07;;;;;;;5.62;94.43;100108.56;5022823;28;20029;-81
2022/11/26 09:35:10;;;;;;;22.50;12.10;;;;;;;5.63;94.08;100106.72;5020870;28;20128;-82
2022/11/26 09:37:35;;;;;;;22.40;11.38;;;;;;;5.80;93.39;100127.53;4988281;28;20041;-81
2022/11/26 09:40:01;;;;;;;23.00;11.95;;;;;;;5.73;93.65;100110.72;5019035;28;20030;-81
2022/11/26 09:42:35;;;;;;;31.90;11.25;;;;;;;5.70;95.39;100120.88;5002019;28;20030;-81
2022/11/26 09:45:00;;;;;;;22.38;10.60;;;;;;;5.76;94.47;100118.31;5016940;28;20043;-81
2022/11/26 09:47:30;;;;;;;20.75;10.35;;;;;;;5.76;94.36;100118.31;5020299;28;20923;-81
2022/11/26 09:50:05;;;;;;;27.05;11.00;;;;;;;5.73;96.45;100123.97;5017549;28;20040;-81
2022/11/26 09:52:41;;;;;;;28.15;11.00;;;;;;;5.68;96.20;100104.34;5020344;28;20033;-82
2022/11/26 09:55:14;;;;;;;;;;;;;;;5.95;94.66;100128.34;5019236;28;20030;-81
2022/11/26 09:57:48;;;;;;;27.80;12.02;;;;;;;5.81;93.70;100118.53;5020904;28;19959;-81
2022/11/26 10:00:38;;;;;;;21.30;10.48;;;;;;;5.99;93.51;100123.47;5016165;28;20057;-81
2022/11/26 10:03:29;;;;;;;24.20;11.82;;;;;;;5.91;95.23;100135.00;5017795;28;20548;-81
2022/11/26 10:06:07;;;;;;;26.65;13.85;;;;;;;5.87;93.84;100114.38;5015647;28;20044;-80
2022/11/26 10:08:50;;;;;;;22.02;12.30;;;;;;;5.99;94.48;100132.25;5020713;28;21083;-81
2022/11/26 10:11:40;;;;;;;25.45;13.85;;;;;;;6.07;93.64;100130.50;5019604;28;20078;-81
2022/11/26 10:14:22;;;;;;;23.15;14.55;;;;;;;6.19;93.13;100143.06;5017988;28;20152;-81
2022/11/26 10:17:05;;;;;;;32.83;13.38;;;;;;;6.12;95.84;100142.16;5014956;28;20029;-81
2022/11/26 10:19:59;;;;;;;21.42;10.98;;;;;;;6.03;94.60;100138.81;5016116;28;20052;-81
2022/11/26 10:22:29;;;;;;;31.75;12.13;;;;;;;6.10;93.09;100146.81;5015709;28;20025;-80
2022/11/26 10:24:58;;;;;;;27.35;11.80;;;;;;;6.11;93.94;100129.94;5023805;28;20033;-81
2022/11/26 10:27:29;;;;;;;43.67;14.90;;;;;;;6.19;96.09;100142.22;5015096;28;20116;-80
2022/11/26 10:30:15;;;;;;;33.28;15.43;;;;;;;6.33;94.10;100144.84;5021044;28;20021;-80
2022/11/26 10:32:44;;;;;;;64.85;19.63;;;;;;;6.36;93.43;100138.31;5024943;28;20373;-80
2022/11/26 10:35:30;;;;;;;84.82;19.65;;;;;;;6.68;92.47;100141.25;5022890;28;20045;-80
2022/11/26 10:37:56;;;;;;;39.13;13.50;;;;;;;6.51;92.01;100125.84;5022626;28;20120;-80
2022/11/26 10:40:24;;;;;;;35.42;13.60;;;;;;;6.66;91.62;100139.84;5021637;28;20029;-81
2022/11/26 10:43:09;;;;;;;35.65;12.35;;;;;;;6.62;91.74;100130.59;5015474;28;20497;-80
2022/11/26 10:45:42;;;;;;;27.55;13.50;;;;;;;6.68;91.63;100148.41;5021163;28;20026;-81
2022/11/26 10:48:30;;;;;;;27.15;11.45;;;;;;;6.46;92.10;100152.91;5021903;28;20064;-80
2022/11/26 10:51:09;;;;;;;30.40;10.65;;;;;;;6.44;93.56;100151.47;5022619;28;20021;-80
2022/11/26 10:54:01;;;;;;;28.52;13.68;;;;;;;6.39;93.49;100153.84;5018630;28;20027;-80
2022/11/26 10:56:39;;;;;;;26.65;11.30;;;;;;;6.42;92.86;100154.28;5023123;28;20037;-80
2022/11/26 10:59:17;;;;;;;28.98;12.20;;;;;;;6.46;92.52;100158.22;5019346;28;20040;-80
2022/11/26 11:01:43;;;;;;;27.92;11.07;;;;;;;6.40;91.76;100161.63;5020798;28;20084;-80
2022/11/26 11:04:30;;;;;;;19.38;11.00;;;;;;;6.39;92.23;100161.81;5017736;28;20516;-80
2022/11/26 11:06:57;;;;;;;27.23;12.77;;;;;;;6.38;91.38;100145.06;5021982;28;20032;-80
2022/11/26 11:09:34;;;;;;;29.02;11.40;;;;;;;6.41;91.76;100151.84;5016888;28;20481;-80
2022/11/26 11:12:20;;;;;;;21.50;11.18;;;;;;;6.59;91.56;100165.47;5016620;28;20485;-81
2022/11/26 11:14:47;;;;;;;28.60;10.85;;;;;;;6.50;90.79;100153.34;5002561;28;20084;-80
2022/11/26 11:17:35;;;;;;;24.73;12.02;;;;;;;6.37;91.24;100167.31;5022405;28;20028;-80
2022/11/26 11:20:13;;;;;;;23.80;10.60;;;;;;;6.29;91.68;100146.19;5017933;28;20068;-80
2022/11/26 11:22:39;;;;;;;22.05;10.10;;;;;;;6.70;91.06;100172.94;5025018;28;20029;-80
2022/11/26 11:25:19;;;;;;;25.00;8.98;;;;;;;6.59;90.61;100176.09;5020486;28;20033;-80
2022/11/26 11:27:44;;;;;;;19.98;9.95;;;;;;;6.69;90.65;100166.78;5017187;28;20038;-81